バンコク/スワンナプーム の空港の天気 - METARとTAF

スワンナプーム国際空港 ( VTBS / BKK ) - タイ サムットプラーカーン県 (バンコク近郊)
飛行場実況気象(Metar)
観測時間08/22 23:30 ICT (08/22 16:30 UTC)
風向・風速不定 1m/s
視程10km以上
天気現象
少しの雲 雲底高度 610m
全天の4割程度の雲 雲底高度 1220m
全天の8割程度の雲 雲底高度 3050m
気温27℃
湿度89%
気圧1009hPa
METARVTBS 221630Z VRB02KT 9999 FEW020 SCT040 BKN100 27/25 Q1009 NOSIG
過去の天気等 Google飛行場航空写真 Wunderground天気予報

過去48時間のMETAR

飛行場予報(TAF)
発表時間: 8/22 18:00 ICT (8/22 11:00 UTC)
予報対象時間: 22日19時 ICT ~ 24日1時 ICT
風向・風速南南西 4m/s
視程9000m
少しの雲 雲底高度 610m
全天の4割程度の雲 雲底高度 3050m
22日19時 ICT ~ 22日23時 ICT に一時的に
風向・風速南西 5m/s 瞬間風速 13m/s
視程5000m
天気現象雷雨
少しの積乱雲 雲底高度 550m
全天の4割程度の雲 雲底高度 910m
全天の8割程度の雲 雲底高度 3050m
23日14時 ICT ~ 23日20時 ICT に一時的に
風向・風速西南西 5m/s 瞬間風速 13m/s
視程5000m
天気現象雷雨
少しの積乱雲 雲底高度 550m
全天の4割程度の雲 雲底高度 910m
全天の8割程度の雲 雲底高度 3050m
TAF VTBS 221100Z 2212/2318 21008KT 9000 FEW020 SCT100
TEMPO 2212/2216 23010G25KT 5000 TSRA FEW018CB SCT030 BKN100
TEMPO 2307/2313 24010G25KT 5000 TSRA FEW018CB SCT030 BKN100